Garland City, Arkansas
Current Conditions -  °F | °C
As of 7:53 PM on Wednesday 26 Nov 2014 (Local Time) from KTXK Reporting Station
Clear Clear  
Wind Chill: 47°   Ceiling: Unl
Heat Index: 49°   Visibility: 10mi
Dew Point: 31°   Wind: 5mph
Humidity: 50%   Direction: 300°WNW
Pressure: 30.24"   Gusts: NA
Location:  33.35°N, 93.75°W
Report Text: KTXK 270153Z 30004KT 10SM CLR 09/M01 A3024 RMK AO2 SLP240 T00941006
Loading
Personal Weather Stations






























Interactive Weather Map New forecast layout! Learn more

10-Day Weather Forecast

Advertisements
Track Severe Weather on mobile